Time;durP1;ratioP1;P1;durP2;ratioP2;P2;SDS_P1;SDS_P2;PMS_P1;PMS_P2;Temp;Humidity;BMP_temperature;BMP_pressure;BME280_temperature;BME280_humidity;BME280_pressure;Samples;Min_cycle;Max_cycle;Signal;HPM_P1;HPM_P2
2021/12/06 00:01:31;;;;;;;11.43;2.15;;;;;;;20.77;42.33;102459.56;4191645;28;20125;-57
2021/12/06 00:03:39;;;;;;;10.30;2.50;;;;;;;20.75;42.53;102450.59;4190566;28;20445;-56
2021/12/06 00:05:40;;;;;;;5.22;1.95;;;;;;;20.79;42.50;102455.44;4193959;28;20028;-55
2021/12/06 00:07:42;;;;;;;5.68;1.67;;;;;;;20.78;42.16;102453.75;4189928;28;20045;-57
2021/12/06 00:09:44;;;;;;;9.55;2.83;;;;;;;20.77;42.50;102437.31;4184372;28;20045;-56
2021/12/06 00:11:46;;;;;;;8.15;2.38;;;;;;;20.76;42.31;102442.03;4189782;28;20041;-55
2021/12/06 00:13:49;;;;;;;8.40;2.28;;;;;;;20.78;42.20;102430.63;4180017;28;20095;-55
2021/12/06 00:15:52;;;;;;;9.25;2.17;;;;;;;20.79;42.39;102438.72;4188290;28;20048;-56
2021/12/06 00:17:53;;;;;;;8.77;2.38;;;;;;;20.80;42.14;102425.66;4194460;28;20040;-58
2021/12/06 00:19:54;;;;;;;6.70;2.25;;;;;;;20.74;41.98;102408.03;4183526;28;20045;-59
2021/12/06 00:21:57;;;;;;;9.68;2.75;;;;;;;20.81;42.32;102417.09;4191312;28;20048;-61
2021/12/06 00:23:59;;;;;;;5.55;2.28;;;;;;;20.83;42.11;102424.34;4195843;28;20106;-60
2021/12/06 00:26:02;;;;;;;5.43;2.35;;;;;;;20.83;41.99;102421.56;4180527;28;20148;-60
2021/12/06 00:28:04;;;;;;;8.32;3.45;;;;;;;20.84;41.97;102420.47;4180345;28;20045;-59
2021/12/06 00:30:10;;;;;;;5.65;2.47;;;;;;;20.76;41.94;102408.63;4180489;28;20534;-59
2021/12/06 00:32:12;;;;;;;9.40;2.72;;;;;;;20.85;41.79;102422.16;4181439;28;20052;-60
2021/12/06 00:34:17;;;;;;;11.82;2.90;;;;;;;20.69;42.19;102396.78;4183216;28;20029;-59
2021/12/06 00:36:26;;;;;;;8.43;2.95;;;;;;;20.84;42.20;102414.91;4183428;28;20037;-59
2021/12/06 00:38:28;;;;;;;9.68;2.90;;;;;;;20.68;41.80;102383.13;4182856;28;20099;-60
2021/12/06 00:40:41;;;;;;;6.40;3.13;;;;;;;20.85;41.70;102419.38;4184511;28;20078;-59
2021/12/06 00:42:46;;;;;;;6.47;2.90;;;;;;;20.85;42.16;102423.03;4183710;28;20380;-58
2021/12/06 00:44:48;;;;;;;13.50;3.13;;;;;;;20.86;41.98;102423.88;4183080;28;20041;-61
2021/12/06 00:46:51;;;;;;;7.00;2.80;;;;;;;20.74;41.85;102404.41;4182949;28;20106;-59
2021/12/06 00:48:53;;;;;;;8.65;3.17;;;;;;;20.86;41.97;102426.66;4183131;28;20037;-60
2021/12/06 00:50:55;;;;;;;10.80;3.22;;;;;;;20.86;41.73;102423.88;4183106;28;21315;-60
2021/12/06 00:52:56;;;;;;;10.00;3.80;;;;;;;20.87;41.80;102414.41;4181917;28;20098;-61
2021/12/06 00:54:58;;;;;;;9.55;3.05;;;;;;;20.87;41.65;102414.41;4183182;28;20041;-60
2021/12/06 00:57:00;;;;;;;7.10;3.05;;;;;;;20.88;41.97;102413.31;4183011;28;20049;-59
2021/12/06 00:59:02;;;;;;;10.13;3.17;;;;;;;20.84;41.88;102409.34;4182872;28;20033;-59
2021/12/06 01:01:05;;;;;;;10.90;3.47;;;;;;;20.80;41.80;102401.50;4196317;28;20067;-59
2021/12/06 01:03:11;;;;;;;11.60;3.40;;;;;;;20.86;42.09;102412.72;4182776;28;20079;-60
2021/12/06 01:05:16;;;;;;;7.32;3.30;;;;;;;20.87;41.65;102415.25;4183569;28;20045;-59
2021/12/06 01:07:17;;;;;;;10.45;3.25;;;;;;;20.84;41.87;102398.22;4182369;28;20055;-59
2021/12/06 01:09:19;;;;;;;7.82;2.95;;;;;;;20.88;41.57;102399.41;4182587;28;20095;-60
2021/12/06 01:11:20;;;;;;;5.45;2.90;;;;;;;20.88;41.76;102399.41;4182619;28;20095;-59
2021/12/06 01:13:23;;;;;;;8.35;3.10;;;;;;;20.84;41.71;102392.63;4182648;28;20025;-59
2021/12/06 01:15:26;;;;;;;7.50;3.17;;;;;;;20.84;41.56;102389.84;4191980;28;20080;-59
2021/12/06 01:17:27;;;;;;;5.82;3.15;;;;;;;20.88;41.84;102388.28;4191815;28;20083;-60
2021/12/06 01:19:30;;;;;;;10.05;3.42;;;;;;;20.88;41.93;102377.16;4182450;28;20037;-60
2021/12/06 01:21:49;;;;;;;6.85;3.08;;;;;;;20.89;41.83;102381.63;4182471;28;20099;-59
2021/12/06 01:23:56;;;;;;;9.43;3.47;;;;;;;20.89;41.87;102384.41;4182325;28;20399;-60
2021/12/06 01:26:25;;;;;;;9.40;3.40;;;;;;;20.77;41.81;102365.81;4182531;28;20037;-59
2021/12/06 01:33:03;;;;;;;6.72;3.45;;;;;;;20.88;41.65;102369.66;4182538;28;20426;-60
2021/12/06 01:39:38;;;;;;;9.60;3.65;;;;;;;20.80;41.80;102337.50;4182457;28;20090;-61
2021/12/06 01:41:57;;;;;;;5.43;3.38;;;;;;;20.88;41.68;102357.66;4185982;28;20048;-59
2021/12/06 01:44:14;;;;;;;12.68;3.05;;;;;;;20.86;42.20;102345.97;4182992;28;20033;-60
2021/12/06 01:46:15;;;;;;;7.40;3.22;;;;;;;20.86;41.60;102330.09;4188858;28;20103;-60
2021/12/06 01:48:17;;;;;;;8.43;3.80;;;;;;;20.86;41.58;102337.63;4189950;28;20029;-60
2021/12/06 01:50:23;;;;;;;10.27;4.15;;;;;;;20.86;41.93;102341.22;4183125;28;20033;-61
2021/12/06 01:52:33;;;;;;;12.45;3.50;;;;;;;20.86;42.02;102337.63;4183020;28;20170;-60
2021/12/06 01:54:34;;;;;;;9.48;3.80;;;;;;;20.87;41.95;102342.06;4182911;28;20090;-60
2021/12/06 01:56:36;;;;;;;7.15;3.53;;;;;;;20.86;41.61;102345.97;4181444;28;20036;-58
2021/12/06 01:58:43;;;;;;;8.07;3.22;;;;;;;20.76;42.08;102325.19;4182540;28;20108;-59
2021/12/06 02:00:49;;;;;;;6.90;3.33;;;;;;;20.85;42.05;102345.13;4181530;28;20086;-59
2021/12/06 02:02:50;;;;;;;7.50;3.42;;;;;;;20.76;42.03;102321.56;4182043;28;20070;-58
2021/12/06 02:04:52;;;;;;;7.03;3.30;;;;;;;20.85;42.05;102316.41;4181876;28;20106;-60
2021/12/06 02:06:54;;;;;;;6.20;3.53;;;;;;;20.85;42.02;102321.97;4181806;28;20025;-59
2021/12/06 02:08:55;;;;;;;6.90;3.58;;;;;;;20.85;42.03;102324.75;4182583;28;20067;-59
2021/12/06 02:11:02;;;;;;;6.43;3.25;;;;;;;20.85;42.08;102328.41;4182194;28;20045;-60
2021/12/06 02:13:05;;;;;;;9.57;3.40;;;;;;;20.80;42.09;102315.25;4182179;28;20036;-61
2021/12/06 02:15:22;;;;;;;7.90;3.20;;;;;;;20.81;41.80;102322.50;4183587;28;20041;-60
2021/12/06 02:17:26;;;;;;;10.88;3.42;;;;;;;20.85;42.09;102310.84;4191429;28;20021;-61
2021/12/06 02:19:32;;;;;;;5.57;3.07;;;;;;;20.84;41.92;102314.75;4183376;28;20110;-61
2021/12/06 02:21:39;;;;;;;7.30;3.33;;;;;;;20.83;42.32;102308.34;4182129;28;20049;-60
2021/12/06 02:23:41;;;;;;;9.13;3.53;;;;;;;20.83;42.27;102301.94;4181464;28;20040;-60
2021/12/06 02:25:43;;;;;;;4.45;3.20;;;;;;;20.81;42.01;102294.69;4181503;28;20037;-59
2021/12/06 02:27:46;;;;;;;5.35;3.00;;;;;;;20.80;41.89;102284.66;4181215;28;20024;-60
2021/12/06 02:29:50;;;;;;;7.05;3.00;;;;;;;20.80;42.27;102290.22;4181436;28;20044;-59
2021/12/06 02:31:52;;;;;;;6.63;2.92;;;;;;;20.79;42.27;102282.94;4181882;28;20045;-59
2021/12/06 02:33:55;;;;;;;8.32;2.70;;;;;;;20.80;41.95;102287.44;4181151;28;20472;-60
2021/12/06 02:35:56;;;;;;;8.63;3.85;;;;;;;20.28;42.13;102209.56;4180797;28;20098;-61
2021/12/06 02:37:58;;;;;;;5.63;2.83;;;;;;;20.76;42.27;102283.44;4180530;28;20550;-60
2021/12/06 02:40:08;;;;;;;5.47;3.05;;;;;;;20.78;42.30;102286.81;4181426;28;20079;-61
2021/12/06 02:42:14;;;;;;;5.72;3.17;;;;;;;20.80;42.09;102281.88;4181373;28;20107;-61
2021/12/06 02:44:17;;;;;;;7.05;3.20;;;;;;;20.78;41.85;102278.47;4183906;28;20480;-60
2021/12/06 02:46:19;;;;;;;5.13;3.05;;;;;;;20.75;42.30;102265.03;4181440;28;20111;-59
2021/12/06 02:48:21;;;;;;;6.95;3.28;;;;;;;20.78;42.16;102261.78;4180985;28;20037;-60
2021/12/06 02:50:26;;;;;;;5.45;3.08;;;;;;;20.76;42.16;102246.44;4181155;28;20037;-60
2021/12/06 02:52:27;;;;;;;4.25;2.63;;;;;;;20.77;42.37;102251.75;4180925;28;20041;-59
2021/12/06 02:54:29;;;;;;;5.85;3.20;;;;;;;20.77;42.21;102253.69;4180375;28;20431;-60
2021/12/06 02:56:34;;;;;;;6.15;2.88;;;;;;;20.77;42.16;102243.41;4180528;28;20048;-60
2021/12/06 03:00:47;;;;;;;7.97;3.00;;;;;;;20.75;42.47;102239.16;4181087;28;20102;-59
2021/12/06 03:02:52;;;;;;;8.15;3.50;;;;;;;20.74;42.13;102243.91;4181700;28;20090;-59
2021/12/06 03:04:53;;;;;;;7.28;3.28;;;;;;;20.67;42.01;102226.53;4180873;28;20103;-59
2021/12/06 03:06:55;;;;;;;5.30;3.20;;;;;;;20.75;42.20;102223.31;4180652;28;20110;-62
2021/12/06 03:09:08;;;;;;;4.47;2.92;;;;;;;20.73;42.14;102222.75;4181096;28;20044;-59
2021/12/06 03:11:18;;;;;;;6.30;3.20;;;;;;;20.71;42.28;102211.03;4181025;28;20036;-59
2021/12/06 03:13:20;;;;;;;6.75;3.35;;;;;;;20.74;42.28;102210.50;4181759;28;20087;-61
2021/12/06 03:15:21;;;;;;;6.15;3.15;;;;;;;20.72;42.48;102209.94;4185063;28;20352;-60
2021/12/06 03:17:25;;;;;;;5.05;2.60;;;;;;;20.73;42.27;102197.69;4188506;28;20098;-59
2021/12/06 03:19:27;;;;;;;5.10;3.25;;;;;;;20.73;42.47;102191.31;4180951;28;20028;-60
2021/12/06 03:21:28;;;;;;;4.25;2.83;;;;;;;20.72;42.51;102182.13;4180316;28;20033;-60
2021/12/06 03:23:30;;;;;;;5.68;2.92;;;;;;;20.72;42.02;102175.72;4180647;28;20045;-60
2021/12/06 03:25:32;;;;;;;4.07;2.85;;;;;;;20.71;42.40;102160.97;4179570;28;20093;-60
2021/12/06 03:27:33;;;;;;;6.75;2.70;;;;;;;20.71;42.07;102168.44;4185499;28;20422;-60
2021/12/06 03:29:35;;;;;;;5.82;3.20;;;;;;;20.57;42.09;102140.09;4187823;28;20037;-60
2021/12/06 03:31:36;;;;;;;5.07;2.92;;;;;;;20.69;42.17;102146.44;4191476;28;20074;-60
2021/12/06 03:33:40;;;;;;;5.32;3.40;;;;;;;20.68;42.19;102161.44;4193453;28;20044;-59
2021/12/06 03:35:42;;;;;;;4.85;2.80;;;;;;;20.67;42.20;102153.38;4182539;28;20053;-57
2021/12/06 03:37:43;;;;;;;5.60;2.67;;;;;;;20.62;42.33;102140.22;4190608;28;20033;-59
2021/12/06 03:39:48;;;;;;;5.00;2.90;;;;;;;20.66;42.05;102138.59;4182283;28;20094;-59
2021/12/06 03:41:55;;;;;;;4.00;2.85;;;;;;;20.64;42.33;102132.44;4197262;28;20087;-58
2021/12/06 03:43:58;;;;;;;5.65;3.10;;;;;;;20.66;42.07;102134.97;4187705;28;20118;-62
2021/12/06 03:46:00;;;;;;;5.28;3.17;;;;;;;20.65;42.40;102128.56;4182734;28;20162;-60
2021/12/06 03:48:01;;;;;;;6.97;3.13;;;;;;;20.64;42.23;102128.81;4190093;28;20041;-60
2021/12/06 03:50:07;;;;;;;6.88;2.85;;;;;;;20.65;42.56;102138.84;4182097;28;20033;-60
2021/12/06 03:52:10;;;;;;;5.40;3.15;;;;;;;20.62;42.30;102129.09;4183102;28;20045;-60
2021/12/06 03:54:20;;;;;;;5.80;2.95;;;;;;;20.61;42.46;102127.38;4193037;28;20495;-60
2021/12/06 03:56:25;;;;;;;4.82;3.17;;;;;;;20.64;42.21;102124.09;4182115;28;20469;-58
2021/12/06 03:58:27;;;;;;;6.22;2.85;;;;;;;20.63;42.27;102116.03;4188142;28;20044;-59
2021/12/06 04:00:28;;;;;;;4.85;2.83;;;;;;;20.60;42.49;102103.44;4184539;28;20032;-60
2021/12/06 04:02:31;;;;;;;5.28;2.58;;;;;;;20.62;42.11;102101.28;4181444;28;20045;-59
2021/12/06 04:04:33;;;;;;;4.90;2.92;;;;;;;20.61;42.13;102094.00;4182430;28;20041;-59
2021/12/06 04:06:36;;;;;;;5.95;2.60;;;;;;;20.60;42.13;102097.88;4183157;28;20033;-62
2021/12/06 04:08:38;;;;;;;4.45;2.88;;;;;;;20.60;42.48;102086.75;4184962;28;20503;-60
2021/12/06 04:10:39;;;;;;;4.88;3.00;;;;;;;20.59;42.26;102073.13;4185630;28;20103;-60
2021/12/06 04:12:41;;;;;;;6.00;2.78;;;;;;;20.60;42.46;102069.22;4186517;28;20033;-59
2021/12/06 04:14:44;;;;;;;7.18;3.05;;;;;;;20.48;42.36;102053.47;4185112;28;20180;-60
2021/12/06 04:16:46;;;;;;;4.05;3.13;;;;;;;20.54;42.53;102055.25;4197002;28;20098;-60
2021/12/06 04:18:47;;;;;;;3.97;2.83;;;;;;;20.57;42.32;102053.88;4188152;28;20044;-59
2021/12/06 04:20:48;;;;;;;5.85;2.72;;;;;;;20.58;42.41;102061.16;4192788;28;20037;-59
2021/12/06 04:22:50;;;;;;;5.32;3.13;;;;;;;20.56;42.59;102054.97;4185544;28;20078;-62
2021/12/06 04:24:52;;;;;;;5.63;2.40;;;;;;;20.55;42.46;102048.59;4183483;28;20551;-59
2021/12/06 04:26:53;;;;;;;4.78;2.60;;;;;;;20.55;42.23;102045.81;4183542;28;20075;-60
2021/12/06 04:29:01;;;;;;;6.30;2.78;;;;;;;20.50;42.42;102025.41;4184063;28;20533;-59
2021/12/06 04:31:04;;;;;;;2.45;2.20;;;;;;;20.54;42.41;102043.28;4183254;28;20119;-59
2021/12/06 04:33:07;;;;;;;5.45;2.67;;;;;;;20.51;42.47;102029.88;4184842;28;20041;-57
2021/12/06 04:35:09;;;;;;;4.00;2.80;;;;;;;20.54;42.67;102021.03;4183524;28;20087;-59
2021/12/06 04:37:13;;;;;;;6.35;3.00;;;;;;;20.53;42.49;102025.75;4184086;28;20041;-59
2021/12/06 04:39:18;;;;;;;6.85;2.75;;;;;;;20.52;42.21;102026.00;4195335;28;20433;-58
2021/12/06 04:41:21;;;;;;;6.20;3.05;;;;;;;20.51;42.43;102027.94;4199006;28;20028;-57
2021/12/06 04:43:22;;;;;;;4.85;2.72;;;;;;;20.53;42.67;102027.69;4199139;28;20032;-57
2021/12/06 04:45:24;;;;;;;7.50;2.55;;;;;;;20.52;42.35;102023.22;4199468;28;20094;-59
2021/12/06 04:47:26;;;;;;;6.03;3.00;;;;;;;20.46;42.87;102001.94;4195470;28;20040;-59
2021/12/06 04:49:29;;;;;;;4.20;2.53;;;;;;;20.50;42.60;102000.38;4187281;28;20434;-57
2021/12/06 04:51:31;;;;;;;4.55;2.80;;;;;;;20.49;42.63;102012.63;4198492;28;20036;-59
2021/12/06 04:53:36;;;;;;;5.80;3.35;;;;;;;20.39;42.60;101979.03;4198824;28;20502;-58
2021/12/06 04:55:49;;;;;;;3.97;2.90;;;;;;;20.47;42.85;101993.38;4198951;28;20102;-58
2021/12/06 04:57:50;;;;;;;4.25;2.63;;;;;;;20.48;42.59;101986.75;4185638;28;20050;-58
2021/12/06 04:59:57;;;;;;;4.40;2.50;;;;;;;20.49;42.53;101982.03;4198159;28;20189;-58
2021/12/06 05:02:01;;;;;;;3.70;2.53;;;;;;;20.38;42.52;101961.50;4198656;28;20114;-59
2021/12/06 05:04:11;;;;;;;4.30;2.60;;;;;;;20.45;42.48;101972.47;4198610;28;20033;-59
2021/12/06 05:06:18;;;;;;;4.97;2.92;;;;;;;20.45;42.64;101973.31;4198598;28;20029;-59
2021/12/06 05:08:23;;;;;;;4.70;2.65;;;;;;;20.46;42.88;101960.25;4198915;28;20033;-58
2021/12/06 05:10:25;;;;;;;4.85;2.60;;;;;;;20.42;42.76;101946.00;4197957;28;20037;-59
2021/12/06 05:12:29;;;;;;;5.68;3.05;;;;;;;20.46;42.85;101943.56;4198369;28;20098;-59
2021/12/06 05:14:31;;;;;;;4.78;3.03;;;;;;;20.43;42.84;101941.28;4197610;28;20024;-58
2021/12/06 05:16:35;;;;;;;3.97;2.63;;;;;;;20.45;42.70;101930.78;4197314;28;20121;-58
2021/12/06 05:18:36;;;;;;;7.43;3.03;;;;;;;20.42;42.95;101923.75;4196057;28;20095;-58
2021/12/06 05:20:38;;;;;;;3.30;2.67;;;;;;;20.43;42.49;101925.44;4182860;28;20103;-60
2021/12/06 05:22:40;;;;;;;5.70;2.60;;;;;;;20.36;42.50;101915.59;4182842;28;20083;-58
2021/12/06 05:24:43;;;;;;;6.30;2.65;;;;;;;20.42;42.94;101923.75;4182793;28;20438;-59
2021/12/06 05:26:45;;;;;;;4.75;2.42;;;;;;;20.42;42.69;101911.81;4182121;28;20086;-58
2021/12/06 05:28:53;;;;;;;5.22;2.63;;;;;;;20.41;42.56;101912.91;4195692;28;20036;-58
2021/12/06 05:30:57;;;;;;;4.85;2.90;;;;;;;20.38;42.91;101892.00;4192640;28;20100;-59
2021/12/06 05:33:02;;;;;;;10.18;2.83;;;;;;;20.21;42.63;101850.34;4187501;28;20098;-58
2021/12/06 05:35:07;;;;;;;3.90;2.65;;;;;;;20.41;42.89;101882.31;4186559;28;20029;-59
2021/12/06 05:37:16;;;;;;;6.63;2.60;;;;;;;20.40;42.67;101866.75;4182953;28;20082;-58
2021/12/06 05:39:17;;;;;;;5.30;2.65;;;;;;;20.43;42.94;101869.00;4182735;28;20033;-59
2021/12/06 05:41:19;;;;;;;3.25;2.20;;;;;;;20.33;42.78;101849.41;4182258;28;20033;-59
2021/12/06 05:43:24;;;;;;;3.78;2.25;;;;;;;20.39;42.76;101851.13;4182403;28;20041;-60
2021/12/06 05:45:28;;;;;;;3.03;2.25;;;;;;;20.39;42.79;101849.22;4182483;28;20037;-58
2021/12/06 05:47:29;;;;;;;4.43;2.10;;;;;;;20.37;43.01;101842.22;4182325;28;20040;-59
2021/12/06 05:49:31;;;;;;;5.53;2.95;;;;;;;20.40;42.65;101838.94;4184074;28;20052;-58
2021/12/06 05:51:32;;;;;;;5.78;2.53;;;;;;;20.37;42.75;101837.50;4190709;28;20041;-59
2021/12/06 05:53:34;;;;;;;5.50;2.78;;;;;;;20.37;43.09;101833.88;4182501;28;20091;-58
2021/12/06 05:55:35;;;;;;;7.50;2.63;;;;;;;20.36;42.78;101829.44;4182497;28;20049;-59
2021/12/06 05:57:38;;;;;;;4.53;2.45;;;;;;;20.35;43.17;101819.41;4181599;28;20102;-58
2021/12/06 05:59:41;;;;;;;6.22;2.58;;;;;;;20.26;43.16;101802.34;4182522;28;20090;-59
2021/12/06 06:01:42;;;;;;;4.95;2.53;;;;;;;20.31;42.90;101803.25;4182844;28;20448;-58
2021/12/06 06:03:44;;;;;;;4.70;2.67;;;;;;;20.33;42.98;101813.25;4182140;28;20086;-59
2021/12/06 06:05:49;;;;;;;3.38;2.50;;;;;;;20.34;43.23;101809.38;4186984;28;20052;-58
2021/12/06 06:07:51;;;;;;;;;;;;;;;20.32;43.25;101806.84;4182794;28;20041;-59
2021/12/06 06:09:52;;;;;;;5.20;2.42;;;;;;;20.40;43.08;101819.50;4181866;28;20322;-59
2021/12/06 06:11:53;;;;;;;7.90;2.50;;;;;;;20.37;43.07;101812.50;4186958;28;20040;-59
2021/12/06 06:13:55;;;;;;;6.63;2.50;;;;;;;20.29;43.20;101785.13;4194136;28;20045;-59
2021/12/06 06:15:57;;;;;;;4.30;1.95;;;;;;;20.33;42.94;101802.13;4193775;28;20085;-58
2021/12/06 06:17:59;;;;;;;3.75;2.20;;;;;;;20.34;43.26;101801.03;4186284;28;20494;-58
2021/12/06 06:20:01;;;;;;;4.95;2.45;;;;;;;20.31;43.30;101788.50;4181367;28;20106;-56
2021/12/06 06:22:03;;;;;;;4.30;2.50;;;;;;;20.33;43.18;101785.47;4193831;28;20033;-58
2021/12/06 06:24:10;;;;;;;3.33;2.40;;;;;;;20.30;43.22;101781.28;4190685;28;20036;-58
2021/12/06 06:26:11;;;;;;;3.33;2.38;;;;;;;20.32;43.12;101804.09;4188652;28;20353;-59
2021/12/06 06:28:14;;;;;;;3.95;2.90;;;;;;;20.31;43.05;101794.06;4182666;28;20102;-58
2021/12/06 06:30:16;;;;;;;3.38;2.30;;;;;;;20.29;43.33;101735.94;4196190;28;20532;-59
2021/12/06 06:32:18;;;;;;;4.53;2.28;;;;;;;20.29;42.96;101733.16;4181467;28;20093;-59
2021/12/06 06:34:19;;;;;;;3.78;2.10;;;;;;;20.28;43.43;101756.50;4181606;28;20037;-59
2021/12/06 06:36:21;;;;;;;5.40;2.58;;;;;;;20.26;43.42;101755.09;4190276;28;20380;-58
2021/12/06 06:38:23;;;;;;;6.35;2.55;;;;;;;20.26;43.28;101761.47;4186344;28;20040;-59
2021/12/06 06:40:25;;;;;;;3.75;2.30;;;;;;;20.28;43.39;101744.53;4181129;28;20083;-57
2021/12/06 06:42:27;;;;;;;3.67;2.30;;;;;;;20.26;43.10;101753.16;4181261;28;20032;-58
2021/12/06 06:44:28;;;;;;;9.15;2.90;;;;;;;20.26;43.38;101764.25;4181613;28;20415;-58
2021/12/06 06:46:30;;;;;;;4.47;2.33;;;;;;;20.26;43.42;101749.53;4180410;28;20036;-58
2021/12/06 06:48:32;;;;;;;5.47;2.40;;;;;;;20.25;43.44;101740.34;4181951;28;20041;-59
2021/12/06 06:50:34;;;;;;;3.67;2.25;;;;;;;20.24;43.56;101746.97;4181901;28;20107;-58
2021/12/06 06:52:35;;;;;;;6.78;2.42;;;;;;;20.24;43.37;101733.09;4195830;28;20044;-59
2021/12/06 06:54:37;;;;;;;3.75;2.50;;;;;;;20.21;43.27;101716.94;4192363;28;20083;-59
2021/12/06 06:56:38;;;;;;;4.00;2.60;;;;;;;20.22;43.15;101718.63;4180556;28;20480;-59
2021/12/06 06:58:40;;;;;;;3.50;2.35;;;;;;;20.23;43.14;101709.19;4181296;28;20036;-59
2021/12/06 07:00:41;;;;;;;4.80;2.67;;;;;;;20.16;43.35;101697.44;4180839;28;20045;-58
2021/12/06 07:02:44;;;;;;;4.25;2.40;;;;;;;20.21;43.25;101699.44;4180917;28;20037;-57
2021/12/06 07:04:46;;;;;;;4.45;2.30;;;;;;;20.15;43.44;101672.66;4181752;28;20111;-60
2021/12/06 07:06:47;;;;;;;4.47;1.92;;;;;;;20.12;43.56;101671.25;4180561;28;20434;-58
2021/12/06 07:08:50;;;;;;;2.90;2.47;;;;;;;19.70;43.36;101610.69;4180648;28;20037;-60
2021/12/06 07:10:52;;;;;;;3.38;2.30;;;;;;;20.21;43.24;101694.72;4185498;28;20044;-59
2021/12/06 07:12:55;;;;;;;5.85;2.63;;;;;;;20.22;43.49;101681.66;4184761;28;20037;-59
2021/12/06 07:14:57;;;;;;;5.05;2.75;;;;;;;20.19;43.59;101683.00;4181572;28;20032;-60
2021/12/06 07:16:58;;;;;;;4.30;2.22;;;;;;;20.20;43.58;101675.50;4193454;28;20092;-60
2021/12/06 07:19:03;;;;;;;3.70;2.30;;;;;;;20.20;43.30;101681.91;4186506;28;20442;-60
2021/12/06 07:21:05;;;;;;;6.30;2.53;;;;;;;20.19;43.70;101671.88;4186933;28;20438;-60
2021/12/06 07:23:07;;;;;;;3.78;2.10;;;;;;;20.19;43.29;101663.53;4191728;28;20094;-59
2021/12/06 07:25:10;;;;;;;4.03;2.17;;;;;;;20.19;43.46;101662.72;4182771;28;20083;-58
2021/12/06 07:27:11;;;;;;;3.53;1.90;;;;;;;20.16;43.36;101646.53;4194372;28;20040;-59
2021/12/06 07:29:13;;;;;;;3.22;1.95;;;;;;;20.16;43.29;101641.84;4193122;28;20450;-60
2021/12/06 07:31:15;;;;;;;3.35;2.30;;;;;;;20.17;43.71;101626.84;4190654;28;20102;-58
2021/12/06 07:33:16;;;;;;;3.63;2.10;;;;;;;20.16;43.36;101636.31;4186088;28;20500;-59
2021/12/06 07:35:18;;;;;;;4.85;2.40;;;;;;;19.96;43.64;101600.75;4193148;28;20074;-59
2021/12/06 07:37:19;;;;;;;5.15;2.25;;;;;;;20.14;43.44;101638.47;4191345;28;20082;-58
2021/12/06 07:39:20;;;;;;;4.07;2.10;;;;;;;20.16;43.38;101638.22;4189011;28;20033;-59
2021/12/06 07:41:28;;;;;;;4.55;2.22;;;;;;;20.12;43.70;101635.13;4186625;28;20045;-58
2021/12/06 07:43:32;;;;;;;3.50;2.28;;;;;;;20.12;43.77;101629.56;4184389;28;20103;-60
2021/12/06 07:45:34;;;;;;;3.92;2.20;;;;;;;20.13;43.57;101625.69;4186190;28;20117;-60
2021/12/06 07:47:37;;;;;;;4.65;2.00;;;;;;;20.13;43.70;101636.81;4182927;28;20037;-60
2021/12/06 07:49:39;;;;;;;6.53;2.00;;;;;;;20.12;43.53;101640.69;4180739;28;20102;-59
2021/12/06 07:51:41;;;;;;;2.83;2.00;;;;;;;20.12;43.63;101649.03;4185608;28;20110;-58
2021/12/06 07:53:42;;;;;;;4.72;2.28;;;;;;;20.10;43.74;101651.22;4185190;28;20037;-59
2021/12/06 07:55:44;;;;;;;8.23;2.40;;;;;;;20.08;43.45;101647.88;4185494;28;20040;-59
2021/12/06 07:57:46;;;;;;;6.30;2.40;;;;;;;20.01;43.77;101627.75;4189486;28;20041;-59
2021/12/06 07:59:47;;;;;;;3.35;2.00;;;;;;;20.07;43.50;101643.41;4180561;28;20095;-58
2021/12/06 08:01:49;;;;;;;4.45;2.53;;;;;;;20.10;43.88;101630.91;4186168;28;20041;-59
2021/12/06 08:03:51;;;;;;;2.65;1.90;;;;;;;20.08;43.76;101627.56;4184191;28;20037;-59
2021/12/06 08:05:54;;;;;;;3.45;1.90;;;;;;;20.08;43.85;101613.69;4187710;28;20045;-59
2021/12/06 08:08:19;;;;;;;3.58;2.38;;;;;;;20.08;43.67;101610.91;4180047;28;20045;-59
2021/12/06 08:10:21;;;;;;;3.75;2.25;;;;;;;20.10;43.70;101603.13;4187097;28;20040;-60
2021/12/06 08:12:25;;;;;;;5.72;2.22;;;;;;;20.09;43.77;101615.34;4196350;28;20040;-57
2021/12/06 08:14:29;;;;;;;3.55;1.92;;;;;;;20.09;43.49;101621.75;4194238;28;20040;-59
2021/12/06 08:16:33;;;;;;;5.70;2.28;;;;;;;20.04;43.48;101616.13;4179940;28;20123;-58
2021/12/06 08:18:36;;;;;;;2.83;1.92;;;;;;;19.99;43.73;101596.63;4194245;28;20487;-58
2021/12/06 08:20:41;;;;;;;4.18;2.03;;;;;;;20.05;43.65;101606.69;4180242;28;20453;-58
2021/12/06 08:22:42;;;;;;;;;;;;;;;20.03;43.60;101583.91;4179456;28;20392;-57
2021/12/06 08:24:46;;;;;;;2.00;1.80;;;;;;;20.10;43.51;101581.75;4180718;28;19959;-59
2021/12/06 08:26:48;;;;;;;3.83;1.90;;;;;;;20.10;43.39;101581.75;4191050;28;20085;-59
2021/12/06 08:28:53;;;;;;;4.35;1.60;;;;;;;20.08;43.80;101578.41;4182823;28;20665;-59
2021/12/06 08:30:55;;;;;;;4.70;2.13;;;;;;;20.07;43.68;101571.16;4181046;28;20102;-60
2021/12/06 08:32:59;;;;;;;3.95;2.40;;;;;;;20.03;43.83;101551.41;4180275;28;20033;-59
2021/12/06 08:35:02;;;;;;;3.30;2.03;;;;;;;20.04;43.77;101563.34;4180252;28;20079;-59
2021/12/06 08:37:03;;;;;;;3.05;1.90;;;;;;;20.05;43.68;101556.69;4181811;28;20459;-60
2021/12/06 08:39:06;;;;;;;4.85;2.28;;;;;;;20.03;43.59;101564.44;4178741;28;20107;-58
2021/12/06 08:41:10;;;;;;;3.35;2.08;;;;;;;20.02;43.47;101551.63;4179949;28;20071;-59
2021/12/06 08:43:16;;;;;;;3.72;2.15;;;;;;;20.01;43.94;101545.25;4185539;28;20464;-58
2021/12/06 08:45:18;;;;;;;2.90;1.80;;;;;;;19.98;43.74;101540.22;4187733;28;20028;-58
2021/12/06 08:47:20;;;;;;;2.75;1.88;;;;;;;20.00;44.02;101538.00;4179657;28;20049;-59
2021/12/06 08:49:21;;;;;;;4.43;2.22;;;;;;;19.99;43.79;101529.94;4179843;28;20476;-59
2021/12/06 08:51:32;;;;;;;4.93;2.00;;;;;;;19.99;43.57;101524.41;4180053;28;20037;-58
2021/12/06 08:53:34;;;;;;;3.17;1.73;;;;;;;19.98;43.93;101523.56;4181557;28;20041;-59
2021/12/06 08:55:35;;;;;;;3.13;1.90;;;;;;;19.47;43.69;101438.78;4182920;28;20094;-59
2021/12/06 08:57:38;;;;;;;3.80;2.20;;;;;;;19.99;43.58;101524.41;4182179;28;20037;-60
2021/12/06 08:59:39;;;;;;;4.50;2.10;;;;;;;19.96;43.99;101519.34;4183217;28;20502;-60
2021/12/06 09:01:41;;;;;;;3.60;1.80;;;;;;;19.92;43.91;101513.47;4183947;28;20660;-58
2021/12/06 09:03:42;;;;;;;3.42;1.70;;;;;;;19.96;43.65;101516.56;4193269;28;20098;-59
2021/12/06 09:05:49;;;;;;;2.15;1.88;;;;;;;19.96;43.67;101513.78;4187627;28;20083;-59
2021/12/06 09:07:50;;;;;;;3.58;2.00;;;;;;;19.97;43.95;101521.03;4182494;28;20029;-60
2021/12/06 09:09:56;;;;;;;3.03;2.10;;;;;;;19.97;43.99;101504.34;4195408;28;20475;-59
2021/12/06 09:11:57;;;;;;;4.07;2.10;;;;;;;19.82;43.84;101462.53;4193585;28;20041;-58
2021/12/06 09:13:58;;;;;;;3.20;1.70;;;;;;;19.95;43.72;101468.50;4192122;28;20033;-58
2021/12/06 09:16:04;;;;;;;3.55;1.88;;;;;;;19.95;43.89;101473.25;4182637;28;20082;-58
2021/12/06 09:18:05;;;;;;;3.83;1.90;;;;;;;19.94;44.01;101466.00;4196054;28;20106;-60
2021/12/06 09:20:09;;;;;;;2.97;1.60;;;;;;;19.93;44.15;101450.41;4184266;28;20112;-59
2021/12/06 09:22:13;;;;;;;2.17;1.58;;;;;;;19.79;43.95;101425.88;4182413;28;20494;-59
2021/12/06 09:24:20;;;;;;;4.43;2.10;;;;;;;19.93;43.81;101442.09;4182552;28;20037;-59
2021/12/06 09:26:21;;;;;;;4.07;1.90;;;;;;;19.74;43.76;101411.06;4182431;28;20041;-56
2021/12/06 09:28:23;;;;;;;2.33;1.73;;;;;;;19.93;43.68;101425.41;4186819;28;20102;-58
2021/12/06 09:30:27;;;;;;;2.33;1.65;;;;;;;19.92;43.91;101418.19;4183356;28;20484;-57
2021/12/06 09:32:28;;;;;;;3.22;1.95;;;;;;;19.92;43.95;101410.69;4182369;28;20472;-58
2021/12/06 09:34:31;;;;;;;2.88;1.75;;;;;;;19.90;43.71;101403.75;4182208;28;20147;-59
2021/12/06 09:36:33;;;;;;;3.90;1.98;;;;;;;19.50;44.09;101332.78;4181959;28;20041;-60
2021/12/06 09:38:38;;;;;;;3.08;2.15;;;;;;;19.91;43.98;101403.47;4181079;28;20454;-60
2021/12/06 09:40:41;;;;;;;;;;;;;;;19.90;43.85;101412.06;4182430;28;20542;-59
2021/12/06 09:42:45;;;;;;;2.45;1.70;;;;;;;19.96;44.07;101417.41;4182538;28;19932;-58
2021/12/06 09:44:47;;;;;;;3.30;1.92;;;;;;;19.95;43.73;101429.63;4182712;28;20040;-58